Time;durP1;ratioP1;P1;durP2;ratioP2;P2;SDS_P1;SDS_P2;PMS_P1;PMS_P2;Temp;Humidity;BMP_temperature;BMP_pressure;BME280_temperature;BME280_humidity;BME280_pressure;Samples;Min_cycle;Max_cycle;Signal;HPM_P1;HPM_P2
2022/11/04 00:01:31;;;;;;;9.75;1.20;;;11.80;99.90;;;;;;4987054;28;20030;-71
2022/11/04 00:03:57;;;;;;;7.22;1.08;;;11.80;99.90;;;;;;4991111;28;20061;-71
2022/11/04 00:06:23;;;;;;;4.82;1.10;;;11.80;99.90;;;;;;4975751;28;20317;-71
2022/11/04 00:08:53;;;;;;;6.53;1.17;;;11.70;99.90;;;;;;4980684;28;20477;-72
2022/11/04 00:14:05;;;;;;;5.55;1.02;;;11.70;99.90;;;;;;4991154;28;20041;-73
2022/11/04 00:19:15;;;;;;;3.05;1.00;;;11.70;99.90;;;;;;4991321;28;20093;-72
2022/11/04 00:29:58;;;;;;;5.90;1.30;;;11.70;99.90;;;;;;4990995;28;20084;-73
2022/11/04 00:35:10;;;;;;;5.85;1.10;;;11.70;99.90;;;;;;4991380;28;20042;-73
2022/11/04 00:37:40;;;;;;;6.15;1.10;;;11.70;99.90;;;;;;4990079;28;20079;-72
2022/11/04 00:40:07;;;;;;;5.63;1.00;;;11.70;99.90;;;;;;4990706;28;20464;-72
2022/11/04 00:42:33;;;;;;;8.60;1.38;;;11.70;99.90;;;;;;4977788;28;20043;-74
2022/11/04 00:44:59;;;;;;;4.97;1.20;;;11.70;99.90;;;;;;4990321;28;20125;-72
2022/11/04 00:47:24;;;;;;;6.90;1.52;;;11.70;99.90;;;;;;4991290;28;20471;-73
2022/11/04 00:49:50;;;;;;;8.30;1.73;;;11.60;99.90;;;;;;4990727;28;20061;-71
2022/11/04 00:52:16;;;;;;;7.35;1.10;;;11.60;99.90;;;;;;4990919;28;20038;-72
2022/11/04 00:54:41;;;;;;;5.63;1.08;;;11.60;99.90;;;;;;4989526;28;20053;-71
2022/11/04 00:57:11;;;;;;;5.50;1.10;;;11.60;99.90;;;;;;4989567;28;20047;-71
2022/11/04 00:59:37;;;;;;;4.85;1.20;;;11.50;99.90;;;;;;4990541;28;20026;-71
2022/11/04 01:02:03;;;;;;;7.05;1.50;;;11.50;99.90;;;;;;4990538;28;20101;-72
2022/11/04 01:04:29;;;;;;;8.38;1.92;;;11.40;99.90;;;;;;4990161;28;20499;-72
2022/11/04 01:06:54;;;;;;;6.18;1.90;;;11.40;99.90;;;;;;4990104;28;20023;-71
2022/11/04 01:09:20;;;;;;;8.93;2.00;;;11.40;99.90;;;;;;4988956;28;20022;-71
2022/11/04 01:11:45;;;;;;;8.48;1.58;;;11.40;99.90;;;;;;4984904;28;20391;-72
2022/11/04 01:14:11;;;;;;;2.80;1.05;;;11.30;99.90;;;;;;4986109;28;20025;-72
2022/11/04 01:16:37;;;;;;;6.90;1.20;;;11.30;99.90;;;;;;4988485;28;20149;-71
2022/11/04 01:19:03;;;;;;;3.55;0.90;;;11.20;99.90;;;;;;4988392;28;20109;-72
2022/11/04 01:21:29;;;;;;;4.07;0.88;;;11.20;99.90;;;;;;4990130;28;20054;-72
2022/11/04 01:23:54;;;;;;;3.97;1.00;;;11.20;99.90;;;;;;4989652;28;20505;-72
2022/11/04 01:26:23;;;;;;;5.15;1.02;;;11.10;99.90;;;;;;4990365;28;20169;-73
2022/11/04 01:28:49;;;;;;;3.53;0.93;;;11.10;99.90;;;;;;4989423;28;20034;-72
2022/11/04 01:31:20;;;;;;;3.13;1.02;;;11.00;99.90;;;;;;4989374;28;20030;-71
2022/11/04 01:33:46;;;;;;;2.28;0.75;;;11.00;99.90;;;;;;4988348;28;20394;-72
2022/11/04 01:36:11;;;;;;;4.10;0.80;;;10.90;99.90;;;;;;4977889;28;20027;-71
2022/11/04 01:38:37;;;;;;;4.18;1.02;;;10.90;99.90;;;;;;4986831;28;20514;-72
2022/11/04 01:41:03;;;;;;;1.83;0.40;;;10.90;99.90;;;;;;4988643;28;20157;-72
2022/11/04 01:44:00;;;;;;;6.82;0.98;;;10.90;99.90;;;;;;4985612;28;20022;-72
2022/11/04 01:46:45;;;;;;;4.32;1.35;;;10.80;99.90;;;;;;4970101;28;20031;-70
2022/11/04 01:49:22;;;;;;;4.03;0.70;;;10.80;99.90;;;;;;4985925;28;20037;-71
2022/11/04 01:51:52;;;;;;;3.35;0.77;;;10.70;99.90;;;;;;4989800;28;20482;-72
2022/11/04 01:54:18;;;;;;;3.42;0.80;;;10.70;99.90;;;;;;4991798;28;20049;-72
2022/11/04 01:56:46;;;;;;;3.45;0.90;;;10.60;99.90;;;;;;4991457;28;20034;-72
2022/11/04 01:59:23;;;;;;;2.42;1.08;;;10.60;99.90;;;;;;4989734;28;20038;-73
2022/11/04 02:01:49;;;;;;;5.60;1.10;;;10.60;99.90;;;;;;4993510;28;20041;-72
2022/11/04 02:04:24;;;;;;;6.15;1.00;;;10.60;99.90;;;;;;4991871;28;20026;-72
2022/11/04 02:06:59;;;;;;;6.70;1.40;;;10.60;99.90;;;;;;4993246;28;20041;-72
2022/11/04 02:09:28;;;;;;;4.07;1.50;;;10.70;99.90;;;;;;4982397;28;20046;-72
2022/11/04 02:14:39;;;;;;;4.38;1.67;;;10.70;99.90;;;;;;4984287;28;20045;-72
2022/11/04 02:17:31;;;;;;;4.22;2.10;;;10.70;99.90;;;;;;4993112;28;20034;-71
2022/11/04 02:20:12;;;;;;;5.75;2.47;;;10.80;99.90;;;;;;4981894;28;20038;-72
2022/11/04 02:22:41;;;;;;;4.25;2.63;;;10.80;99.90;;;;;;4991397;28;20491;-71
2022/11/04 02:25:31;;;;;;;6.40;2.70;;;10.80;99.90;;;;;;4993508;28;20383;-72
2022/11/04 02:28:27;;;;;;;5.22;2.88;;;10.80;99.90;;;;;;4991447;28;20030;-72
2022/11/04 02:30:59;;;;;;;;;;;10.90;99.90;;;;;;4997508;28;20057;-71
2022/11/04 02:33:48;;;;;;;7.03;3.30;;;10.90;99.90;;;;;;4992946;28;19913;-71
2022/11/04 02:36:25;;;;;;;6.03;3.90;;;10.90;99.90;;;;;;4992411;28;20037;-73
2022/11/04 02:38:54;;;;;;;11.23;4.18;;;10.90;99.90;;;;;;4990064;28;20072;-72
2022/11/04 02:41:25;;;;;;;7.93;4.63;;;10.90;99.90;;;;;;4992977;28;20074;-72
2022/11/04 02:44:09;;;;;;;13.00;5.43;;;10.90;99.90;;;;;;4990018;28;20034;-72
2022/11/04 02:46:36;;;;;;;12.73;6.22;;;10.90;99.90;;;;;;4992257;28;20053;-72
2022/11/04 02:49:14;;;;;;;13.50;6.50;;;10.90;99.90;;;;;;4992998;28;20019;-71
2022/11/04 02:52:02;;;;;;;17.10;8.13;;;10.90;99.90;;;;;;4992490;28;20037;-71
2022/11/04 02:54:38;;;;;;;15.98;7.88;;;10.90;99.90;;;;;;4991234;28;20038;-73
2022/11/04 02:57:07;;;;;;;14.18;8.25;;;10.80;99.90;;;;;;4979944;28;20030;-71
2022/11/04 02:59:33;;;;;;;14.88;8.38;;;10.80;99.90;;;;;;4992653;28;20018;-71
2022/11/04 03:02:02;;;;;;;14.15;9.07;;;10.80;99.90;;;;;;4989923;28;20030;-71
2022/11/04 03:04:32;;;;;;;14.05;8.23;;;10.80;99.90;;;;;;4990708;28;20113;-71
2022/11/04 03:07:00;;;;;;;16.83;8.95;;;10.80;99.90;;;;;;4984369;28;20026;-72
2022/11/04 03:09:29;;;;;;;15.98;8.38;;;10.80;99.90;;;;;;4992953;28;20387;-71
2022/11/04 03:12:01;;;;;;;11.48;8.20;;;10.80;99.90;;;;;;4991995;28;20120;-72
2022/11/04 03:14:52;;;;;;;11.35;8.02;;;10.80;99.90;;;;;;4991708;28;20030;-73
2022/11/04 03:17:28;;;;;;;13.65;8.25;;;10.70;99.90;;;;;;4984033;28;20084;-71
2022/11/04 03:19:58;;;;;;;13.43;7.85;;;10.70;99.90;;;;;;4979265;28;20037;-72
2022/11/04 03:22:34;;;;;;;12.68;7.97;;;10.70;99.90;;;;;;4990383;28;20494;-72
2022/11/04 03:25:03;;;;;;;14.70;7.82;;;10.70;99.90;;;;;;4981329;28;20431;-72
2022/11/04 03:27:48;;;;;;;15.23;8.77;;;10.70;99.90;;;;;;4992184;28;20034;-71
2022/11/04 03:30:19;;;;;;;12.27;6.10;;;10.70;99.90;;;;;;4990068;28;20026;-72
2022/11/04 03:33:06;;;;;;;12.88;8.30;;;10.60;99.90;;;;;;4985159;28;20109;-72
2022/11/04 03:35:32;;;;;;;15.77;8.75;;;10.60;99.90;;;;;;4981213;28;20031;-72
2022/11/04 03:37:58;;;;;;;13.90;8.60;;;10.60;99.90;;;;;;4989039;28;20075;-72
2022/11/04 03:40:24;;;;;;;14.32;8.82;;;10.50;99.90;;;;;;4982702;28;20022;-71
2022/11/04 03:43:11;;;;;;;15.25;8.38;;;10.50;99.90;;;;;;4989565;28;20042;-72
2022/11/04 03:45:38;;;;;;;16.17;9.07;;;10.50;99.90;;;;;;4981727;28;20514;-72
2022/11/04 03:48:04;;;;;;;15.10;9.45;;;10.50;99.90;;;;;;4984394;28;20110;-72
2022/11/04 03:50:32;;;;;;;16.45;9.40;;;10.50;99.90;;;;;;4989828;28;20015;-72
2022/11/04 03:52:59;;;;;;;15.45;8.93;;;10.50;99.90;;;;;;4987619;28;20430;-71
2022/11/04 03:55:38;;;;;;;16.15;9.23;;;10.40;99.90;;;;;;4980092;28;20029;-72
2022/11/04 03:58:26;;;;;;;16.17;9.82;;;10.40;99.90;;;;;;4983988;28;20049;-72
2022/11/04 04:01:05;;;;;;;17.65;9.75;;;10.40;99.90;;;;;;4976450;28;20037;-71
2022/11/04 04:03:38;;;;;;;19.73;10.30;;;10.40;99.90;;;;;;5001471;28;20061;-71
2022/11/04 04:06:14;;;;;;;20.05;10.80;;;10.40;99.90;;;;;;4974798;28;20099;-72
2022/11/04 04:09:15;;;;;;;21.65;11.27;;;10.40;99.90;;;;;;4979643;28;20486;-71
2022/11/04 04:11:49;;;;;;;23.10;11.07;;;10.30;99.90;;;;;;4926088;29;20051;-72
2022/11/04 04:14:38;;;;;;;20.75;10.98;;;10.30;99.90;;;;;;4929458;29;20043;-72
2022/11/04 04:17:08;;;;;;;24.83;11.82;;;10.30;99.90;;;;;;4931008;29;20468;-71
2022/11/04 04:19:35;;;;;;;18.27;11.52;;;10.30;99.90;;;;;;4928514;29;20203;-71
2022/11/04 04:22:15;;;;;;;24.27;11.27;;;10.20;99.90;;;;;;4929501;29;20035;-71
2022/11/04 04:27:31;;;;;;;20.92;11.70;;;10.20;99.90;;;;;;4926577;29;20110;-72
2022/11/04 04:30:05;;;;;;;18.55;9.85;;;10.10;99.90;;;;;;4923549;29;20444;-72
2022/11/04 04:32:38;;;;;;;18.73;10.68;;;10.10;99.90;;;;;;4925663;29;20052;-72
2022/11/04 04:37:52;;;;;;;18.65;11.02;;;10.00;99.90;;;;;;4925934;29;20409;-72
2022/11/04 04:45:59;;;;;;;18.20;10.88;;;9.90;99.90;;;;;;4967778;28;20037;-71
2022/11/04 04:48:25;;;;;;;17.35;10.10;;;9.90;99.90;;;;;;4989942;28;20018;-72
2022/11/04 04:50:55;;;;;;;19.55;10.50;;;9.80;99.90;;;;;;4980561;28;20078;-71
2022/11/04 04:53:21;;;;;;;18.38;10.20;;;9.80;99.90;;;;;;4988513;28;20121;-72
2022/11/04 04:55:47;;;;;;;19.63;12.27;;;9.80;99.90;;;;;;4990487;28;20557;-72
2022/11/04 04:58:12;;;;;;;21.20;11.93;;;9.70;99.90;;;;;;4990373;28;20489;-71
2022/11/04 05:00:38;;;;;;;18.60;11.35;;;9.70;99.90;;;;;;4991215;28;20022;-71
2022/11/04 05:03:04;;;;;;;19.05;11.13;;;9.70;99.90;;;;;;4989654;28;20026;-72
2022/11/04 05:05:29;;;;;;;18.35;10.70;;;9.70;99.90;;;;;;4990873;28;20022;-72
2022/11/04 05:07:55;;;;;;;19.38;10.15;;;9.70;99.90;;;;;;4990333;28;20101;-71
2022/11/04 05:10:20;;;;;;;20.30;11.10;;;9.70;99.90;;;;;;4990114;28;20026;-71
2022/11/04 05:15:31;;;;;;;16.92;10.35;;;9.60;99.90;;;;;;4990969;28;20029;-72
2022/11/04 05:17:58;;;;;;;17.38;10.40;;;9.60;99.90;;;;;;4989512;28;20104;-71
2022/11/04 05:20:24;;;;;;;17.20;10.35;;;9.60;99.90;;;;;;4989683;28;20019;-71
2022/11/04 05:22:50;;;;;;;15.23;8.63;;;9.60;99.90;;;;;;4989922;28;20030;-71
2022/11/04 05:25:15;;;;;;;15.45;9.10;;;9.60;99.90;;;;;;4990585;28;20023;-71
2022/11/04 05:27:41;;;;;;;16.35;8.88;;;9.60;99.90;;;;;;4993491;28;20041;-72
2022/11/04 05:30:07;;;;;;;17.35;9.25;;;9.60;99.90;;;;;;4991280;28;20025;-71
2022/11/04 05:32:33;;;;;;;16.13;8.43;;;9.60;99.90;;;;;;4994008;28;20391;-71
2022/11/04 05:34:58;;;;;;;16.05;8.43;;;9.60;99.90;;;;;;4991547;28;20266;-71
2022/11/04 05:37:24;;;;;;;16.75;8.55;;;9.60;99.90;;;;;;4994273;28;20107;-71
2022/11/04 05:39:50;;;;;;;15.45;8.57;;;9.60;99.90;;;;;;4990175;28;20730;-71
2022/11/04 05:42:16;;;;;;;14.15;7.97;;;9.70;99.90;;;;;;4985541;28;20052;-71
2022/11/04 05:44:41;;;;;;;19.65;8.65;;;9.70;99.90;;;;;;4992283;28;20026;-72
2022/11/04 05:47:07;;;;;;;14.95;8.40;;;9.70;99.90;;;;;;4993580;28;20018;-74
2022/11/04 05:49:32;;;;;;;19.98;8.27;;;9.70;99.90;;;;;;4993888;28;20029;-73
2022/11/04 05:51:58;;;;;;;19.67;8.07;;;9.70;99.90;;;;;;4993733;28;20109;-71
2022/11/04 05:54:24;;;;;;;17.92;7.68;;;9.70;99.90;;;;;;4993107;28;20029;-72
2022/11/04 05:56:50;;;;;;;20.85;7.68;;;9.70;99.90;;;;;;4989315;28;20466;-73
2022/11/04 05:59:15;;;;;;;14.77;6.72;;;9.70;99.90;;;;;;4991782;28;20031;-73
2022/11/04 06:01:42;;;;;;;15.40;7.22;;;9.70;99.90;;;;;;4991507;28;20097;-71
2022/11/04 06:04:13;;;;;;;17.75;7.55;;;9.80;99.90;;;;;;4993033;28;20054;-72
2022/11/04 06:06:39;;;;;;;13.27;7.05;;;9.80;99.90;;;;;;4980970;28;20121;-73
2022/11/04 06:09:05;;;;;;;14.55;6.88;;;9.80;99.90;;;;;;4992239;28;20109;-73
2022/11/04 06:11:32;;;;;;;19.10;7.47;;;9.90;99.90;;;;;;4993920;28;20089;-72
2022/11/04 06:13:58;;;;;;;18.75;7.55;;;9.90;99.90;;;;;;4993038;28;20023;-73
2022/11/04 06:16:24;;;;;;;19.77;7.93;;;9.90;99.90;;;;;;4992848;28;20038;-73
2022/11/04 06:18:50;;;;;;;21.73;7.97;;;9.90;99.90;;;;;;4992306;28;20109;-72
2022/11/04 06:21:17;;;;;;;18.25;7.07;;;9.90;99.90;;;;;;4992158;28;20030;-73
2022/11/04 06:23:43;;;;;;;15.25;7.32;;;9.90;99.90;;;;;;4991608;28;20438;-73
2022/11/04 06:26:10;;;;;;;15.48;7.18;;;10.00;99.90;;;;;;4993340;28;20022;-73
2022/11/04 06:28:36;;;;;;;15.57;6.90;;;10.00;99.90;;;;;;4992200;28;20038;-74
2022/11/04 06:31:04;;;;;;;20.23;6.35;;;9.90;99.90;;;;;;4991131;28;20031;-73
2022/11/04 06:33:30;;;;;;;14.10;6.13;;;9.90;99.90;;;;;;4989128;28;20053;-74
2022/11/04 06:35:57;;;;;;;15.75;6.15;;;9.90;99.90;;;;;;4990597;28;20125;-74
2022/11/04 06:38:23;;;;;;;15.40;5.57;;;10.00;99.90;;;;;;4989201;28;20022;-73
2022/11/04 06:40:49;;;;;;;20.85;6.18;;;9.90;99.90;;;;;;4987628;28;20050;-73
2022/11/04 06:43:14;;;;;;;19.38;7.20;;;9.90;99.90;;;;;;4992973;28;20030;-73
2022/11/04 06:45:40;;;;;;;16.85;7.22;;;9.90;99.90;;;;;;4992370;28;20509;-72
2022/11/04 06:48:06;;;;;;;20.67;7.57;;;9.90;99.90;;;;;;4998472;28;20033;-76
2022/11/04 06:50:31;;;;;;;18.35;7.88;;;9.90;99.90;;;;;;5008230;28;20023;-75
2022/11/04 06:52:57;;;;;;;15.73;7.90;;;9.80;99.90;;;;;;4994628;28;20029;-73
2022/11/04 06:55:23;;;;;;;24.23;8.43;;;9.80;99.90;;;;;;4986140;28;20459;-73
2022/11/04 06:57:49;;;;;;;18.25;8.10;;;9.80;99.90;;;;;;4993435;28;20026;-74
2022/11/04 07:00:15;;;;;;;21.17;9.38;;;9.80;99.90;;;;;;4992964;28;20042;-73
2022/11/04 07:02:40;;;;;;;24.83;9.43;;;9.80;99.90;;;;;;4991814;28;20038;-73
2022/11/04 07:05:06;;;;;;;21.15;9.43;;;9.80;99.90;;;;;;4983350;28;20019;-74
2022/11/04 07:07:32;;;;;;;20.05;9.65;;;9.80;99.90;;;;;;4980562;28;20358;-72
2022/11/04 07:09:57;;;;;;;29.02;10.18;;;9.80;99.90;;;;;;4991154;28;20274;-73
2022/11/04 07:12:23;;;;;;;23.25;10.43;;;9.80;99.90;;;;;;4989971;28;20121;-73
2022/11/04 07:14:54;;;;;;;21.85;11.13;;;9.80;99.90;;;;;;4991243;28;20018;-73
2022/11/04 07:17:20;;;;;;;25.80;11.90;;;9.80;99.90;;;;;;4989513;28;20027;-74
2022/11/04 07:19:45;;;;;;;24.58;11.43;;;9.80;99.90;;;;;;4990377;28;20097;-74
2022/11/04 07:22:11;;;;;;;27.13;12.05;;;9.80;99.90;;;;;;4991863;28;20486;-72
2022/11/04 07:24:36;;;;;;;23.90;11.80;;;9.80;99.90;;;;;;4990614;28;20029;-73
2022/11/04 07:27:02;;;;;;;28.17;12.18;;;9.80;99.90;;;;;;4991954;28;20022;-74
2022/11/04 07:29:28;;;;;;;31.30;12.77;;;9.90;99.90;;;;;;4990030;28;20093;-73
2022/11/04 07:31:53;;;;;;;24.67;11.60;;;9.90;99.90;;;;;;4990741;28;20080;-77
2022/11/04 07:34:19;;;;;;;20.00;11.80;;;9.90;99.90;;;;;;4994156;28;20026;-74
2022/11/04 07:36:44;;;;;;;29.88;11.98;;;9.90;99.90;;;;;;4991255;28;20026;-73
2022/11/04 07:39:10;;;;;;;29.65;12.02;;;10.00;99.90;;;;;;4993560;28;20093;-73
2022/11/04 07:41:36;;;;;;;21.85;11.45;;;10.00;99.90;;;;;;4991742;28;20491;-73
2022/11/04 07:44:04;;;;;;;20.80;10.98;;;10.00;99.90;;;;;;4990429;28;20030;-74
2022/11/04 07:46:33;;;;;;;20.23;10.80;;;10.00;99.90;;;;;;4990341;28;20024;-73
2022/11/04 07:48:59;;;;;;;22.50;11.35;;;10.10;99.90;;;;;;4989642;28;20022;-73
2022/11/04 07:51:26;;;;;;;24.83;11.30;;;10.10;99.90;;;;;;4990785;28;20053;-73
2022/11/04 07:53:51;;;;;;;23.85;11.05;;;10.10;99.90;;;;;;4990908;28;20391;-73
2022/11/04 07:56:18;;;;;;;24.05;11.02;;;10.10;99.90;;;;;;4988242;28;20026;-73
2022/11/04 07:58:44;;;;;;;28.40;11.55;;;10.10;99.90;;;;;;4989596;28;20601;-73
2022/11/04 08:01:12;;;;;;;20.02;11.07;;;10.10;99.90;;;;;;4988686;28;20061;-73
2022/11/04 08:03:38;;;;;;;26.60;12.25;;;10.10;99.90;;;;;;4991281;28;20518;-74
2022/11/04 08:06:06;;;;;;;21.63;12.13;;;10.10;99.90;;;;;;4989577;28;20138;-73
2022/11/04 08:08:33;;;;;;;24.92;12.70;;;10.10;99.90;;;;;;4990502;28;20019;-73
2022/11/04 08:11:01;;;;;;;24.35;12.18;;;10.10;99.90;;;;;;4988429;28;20019;-73
2022/11/04 08:13:32;;;;;;;23.08;12.05;;;10.20;99.90;;;;;;4985142;28;20057;-74
2022/11/04 08:16:02;;;;;;;25.85;12.35;;;10.20;99.90;;;;;;4991230;28;20049;-74
2022/11/04 08:18:27;;;;;;;21.98;11.50;;;10.20;99.90;;;;;;4991342;28;20312;-74
2022/11/04 08:20:53;;;;;;;21.05;11.48;;;10.20;99.90;;;;;;4981710;28;20026;-74
2022/11/04 08:23:19;;;;;;;24.25;12.38;;;10.20;99.90;;;;;;4991422;28;20090;-74
2022/11/04 08:25:45;;;;;;;25.05;12.52;;;10.30;99.90;;;;;;4990946;28;20025;-74
2022/11/04 08:28:16;;;;;;;26.67;14.13;;;10.30;99.90;;;;;;4987070;28;20023;-74
2022/11/04 08:30:55;;;;;;;24.90;14.15;;;10.40;99.90;;;;;;4987749;28;20105;-74
2022/11/04 08:33:22;;;;;;;32.17;15.23;;;10.40;99.90;;;;;;4991434;28;20039;-74
2022/11/04 08:35:48;;;;;;;25.25;15.43;;;10.50;99.90;;;;;;4982732;28;20054;-74
2022/11/04 08:38:14;;;;;;;29.77;15.65;;;10.60;99.90;;;;;;4991012;28;20073;-74
2022/11/04 08:40:40;;;;;;;29.42;15.70;;;10.70;99.90;;;;;;4980642;28;20051;-74
2022/11/04 08:43:07;;;;;;;31.65;17.40;;;10.70;99.90;;;;;;4990968;28;20040;-74
2022/11/04 08:45:33;;;;;;;29.30;17.33;;;10.90;99.90;;;;;;4985970;28;20472;-74
2022/11/04 08:47:58;;;;;;;28.95;17.65;;;11.00;99.90;;;;;;4991134;28;20069;-74
2022/11/04 08:50:26;;;;;;;32.55;17.58;;;11.10;99.90;;;;;;4990947;28;20038;-74
2022/11/04 08:52:52;;;;;;;32.78;17.95;;;11.20;99.90;;;;;;4990772;28;20030;-73
2022/11/04 08:55:18;;;;;;;53.13;17.92;;;11.30;99.90;;;;;;4987432;28;20026;-74
2022/11/04 08:57:44;;;;;;;43.20;17.08;;;11.40;99.90;;;;;;4987049;28;20018;-74
2022/11/04 09:00:10;;;;;;;30.70;15.73;;;11.50;99.90;;;;;;4985093;28;20014;-74
2022/11/04 09:02:36;;;;;;;29.10;15.93;;;11.50;99.90;;;;;;4988009;28;20046;-74
2022/11/04 09:05:02;;;;;;;28.15;15.02;;;11.70;99.90;;;;;;4987664;28;20097;-74
2022/11/04 09:07:28;;;;;;;19.55;13.52;;;11.70;99.90;;;;;;4987879;28;20049;-74
2022/11/04 09:09:53;;;;;;;18.02;12.60;;;11.80;99.90;;;;;;4988539;28;20019;-74
2022/11/04 09:12:19;;;;;;;16.58;10.80;;;11.90;99.90;;;;;;4987921;28;20038;-77
2022/11/04 09:14:44;;;;;;;16.73;9.13;;;12.00;99.90;;;;;;4986316;28;20018;-74
2022/11/04 09:17:10;;;;;;;14.80;8.40;;;12.00;99.90;;;;;;4988859;28;20070;-74
2022/11/04 09:19:35;;;;;;;17.25;8.98;;;12.10;99.90;;;;;;4990290;28;20021;-73
2022/11/04 09:22:01;;;;;;;14.98;8.70;;;12.20;99.90;;;;;;4990163;28;20018;-73
2022/11/04 09:24:27;;;;;;;16.00;8.50;;;12.20;99.90;;;;;;4988524;28;20494;-74
2022/11/04 09:26:52;;;;;;;11.88;8.20;;;12.30;99.90;;;;;;4990292;28;20489;-74
2022/11/04 09:29:18;;;;;;;13.30;7.95;;;12.40;99.90;;;;;;4988375;28;20018;-74
2022/11/04 09:31:43;;;;;;;10.65;7.18;;;12.50;99.90;;;;;;4990250;28;20467;-73
2022/11/04 09:34:09;;;;;;;9.00;6.68;;;12.50;99.90;;;;;;4989371;28;20057;-73
2022/11/04 09:36:35;;;;;;;13.05;7.82;;;12.50;99.90;;;;;;4989622;28;20033;-74
2022/11/04 09:39:00;;;;;;;13.25;8.70;;;12.50;99.90;;;;;;4981324;28;20038;-72
2022/11/04 09:41:41;;;;;;;10.15;8.25;;;12.60;99.90;;;;;;4986837;28;20044;-73
2022/11/04 09:44:18;;;;;;;12.60;8.35;;;12.60;99.90;;;;;;4989890;28;20031;-72
2022/11/04 09:46:47;;;;;;;11.48;8.80;;;12.60;99.90;;;;;;4975917;28;20027;-74
2022/11/04 09:49:15;;;;;;;13.85;8.57;;;12.60;99.90;;;;;;4989523;28;20088;-74
2022/11/04 09:51:43;;;;;;;13.82;8.30;;;12.60;99.90;;;;;;4988174;28;20034;-74
2022/11/04 09:54:40;;;;;;;15.90;8.50;;;12.60;99.90;;;;;;4977193;28;20539;-75
2022/11/04 09:57:14;;;;;;;18.20;10.15;;;12.70;99.90;;;;;;4990506;28;20034;-74
2022/11/04 09:59:40;;;;;;;14.50;9.40;;;12.70;99.90;;;;;;4988438;28;20129;-73
2022/11/04 10:02:47;;;;;;;13.00;9.18;;;12.80;99.90;;;;;;4990180;28;20435;-74
2022/11/04 10:05:33;;;;;;;17.63;9.15;;;12.80;99.90;;;;;;4940580;29;20452;-73
2022/11/04 10:08:41;;;;;;;14.55;9.20;;;12.90;99.90;;;;;;4935392;29;20027;-73
2022/11/04 10:11:14;;;;;;;12.43;8.35;;;12.90;99.90;;;;;;4948704;28;20540;-74
2022/11/04 10:14:14;;;;;;;14.15;8.23;;;12.90;99.90;;;;;;4952432;29;20500;-74
2022/11/04 10:16:56;;;;;;;13.68;7.75;;;12.90;99.90;;;;;;4913864;29;20036;-74
2022/11/04 10:19:37;;;;;;;12.90;7.47;;;12.90;99.90;;;;;;4913727;29;20087;-72
2022/11/04 10:22:21;;;;;;;13.82;7.10;;;12.90;99.90;;;;;;4904444;29;20441;-73
2022/11/04 10:25:01;;;;;;;9.63;6.38;;;12.90;99.90;;;;;;4912064;29;20032;-74
2022/11/04 10:27:31;;;;;;;12.77;7.03;;;12.90;99.90;;;;;;4913841;29;20060;-74
2022/11/04 10:30:16;;;;;;;16.83;6.82;;;13.00;99.90;;;;;;4913546;29;20087;-74
2022/11/04 10:32:46;;;;;;;18.85;6.90;;;13.00;99.90;;;;;;4913754;29;20028;-73
2022/11/04 10:35:23;;;;;;;19.48;7.30;;;13.10;99.90;;;;;;4900477;29;20048;-74
2022/11/04 10:37:52;;;;;;;66.60;11.82;;;13.10;99.90;;;;;;4885370;29;20124;-74
2022/11/04 10:40:35;;;;;;;41.15;8.63;;;13.20;99.90;;;;;;4900359;29;20067;-74
2022/11/04 10:43:13;;;;;;;13.02;7.13;;;13.30;99.90;;;;;;4912951;29;20074;-75
2022/11/04 10:46:12;;;;;;;18.23;7.03;;;13.40;99.90;;;;;;4902669;29;20406;-74
2022/11/04 10:48:58;;;;;;;18.10;7.20;;;13.50;99.90;;;;;;4899719;29;20052;-73
2022/11/04 10:51:24;;;;;;;17.20;6.60;;;13.50;99.90;;;;;;4913699;29;20115;-74
2022/11/04 10:53:54;;;;;;;12.45;6.60;;;13.50;99.90;;;;;;4979372;28;20109;-74
2022/11/04 10:56:28;;;;;;;14.10;6.32;;;13.50;99.90;;;;;;4992720;28;20061;-75
2022/11/04 10:58:55;;;;;;;11.70;6.25;;;13.60;99.90;;;;;;4993337;28;20098;-74
2022/11/04 11:01:32;;;;;;;18.05;6.82;;;13.60;99.90;;;;;;4992248;28;20129;-74
2022/11/04 11:03:59;;;;;;;13.15;5.93;;;13.70;99.90;;;;;;4989071;28;20030;-73
2022/11/04 11:06:28;;;;;;;10.48;5.53;;;13.70;99.90;;;;;;4992776;28;20061;-73
2022/11/04 11:09:17;;;;;;;12.85;5.90;;;13.80;99.90;;;;;;4993192;28;20021;-74
2022/11/04 11:11:47;;;;;;;9.90;5.38;;;13.80;99.90;;;;;;4992585;28;20026;-74
2022/11/04 11:14:28;;;;;;;10.18;5.55;;;13.80;99.90;;;;;;4991470;28;20038;-75
2022/11/04 11:16:55;;;;;;;10.50;5.32;;;13.80;99.90;;;;;;5008420;28;20022;-73
2022/11/04 11:19:24;;;;;;;21.00;5.75;;;13.80;99.90;;;;;;4991595;28;20065;-73
2022/11/04 11:21:54;;;;;;;10.52;5.18;;;13.80;99.90;;;;;;4980459;28;20034;-73
2022/11/04 11:24:23;;;;;;;13.93;5.85;;;13.80;99.90;;;;;;4992546;28;20069;-73
2022/11/04 11:26:55;;;;;;;10.00;5.18;;;13.80;99.90;;;;;;4990864;28;20037;-75
2022/11/04 11:29:41;;;;;;;4.53;1.70;;;13.80;99.90;;;;;;4990719;28;20786;-75
2022/11/04 11:32:30;;;;;;;3.03;0.80;;;13.60;99.90;;;;;;4991296;28;20034;-75
2022/11/04 11:35:00;;;;;;;2.72;0.70;;;13.40;99.90;;;;;;4988996;28;20035;-75
2022/11/04 11:37:29;;;;;;;2.35;0.73;;;13.20;99.90;;;;;;4991374;28;20034;-75
2022/11/04 11:39:55;;;;;;;2.53;0.50;;;13.10;99.90;;;;;;4991502;28;20026;-74
2022/11/04 11:42:21;;;;;;;2.38;0.80;;;13.10;99.90;;;;;;4991175;28;20046;-75
2022/11/04 11:44:55;;;;;;;3.47;0.73;;;13.00;99.90;;;;;;4991436;28;20105;-75
2022/11/04 11:47:26;;;;;;;2.88;0.80;;;13.00;99.90;;;;;;4987229;28;20023;-75
2022/11/04 11:50:17;;;;;;;4.60;0.60;;;12.90;99.90;;;;;;4988106;28;20018;-75
2022/11/04 11:52:44;;;;;;;3.53;0.60;;;12.90;99.90;;;;;;4983901;28;20051;-77
2022/11/04 11:55:17;;;;;;;4.03;0.60;;;12.80;99.90;;;;;;4988892;28;20092;-75
2022/11/04 11:58:05;;;;;;;3.17;0.60;;;12.80;99.90;;;;;;4987149;28;20101;-75
2022/11/04 12:00:37;;;;;;;1.90;0.70;;;12.80;99.90;;;;;;4991360;28;20026;-75
2022/11/04 12:03:24;;;;;;;2.53;0.82;;;12.70;99.90;;;;;;4991522;28;20037;-75
2022/11/04 12:06:13;;;;;;;2.42;0.80;;;12.70;99.90;;;;;;4989886;28;20482;-73
2022/11/04 12:08:56;;;;;;;7.18;1.10;;;12.70;99.90;;;;;;4979358;28;20034;-74
2022/11/04 12:11:40;;;;;;;3.22;1.02;;;12.70;99.90;;;;;;4985534;28;20065;-75
2022/11/04 12:14:32;;;;;;;3.47;0.98;;;12.60;99.90;;;;;;4991289;28;20490;-74
2022/11/04 12:17:11;;;;;;;6.85;1.15;;;12.70;99.90;;;;;;4966418;28;20125;-74
2022/11/04 12:20:04;;;;;;;5.57;0.90;;;12.70;99.90;;;;;;4987797;28;20037;-74
2022/11/04 12:22:47;;;;;;;4.55;0.90;;;12.60;99.90;;;;;;5009980;28;20073;-73
2022/11/04 12:25:29;;;;;;;3.03;0.65;;;12.60;99.90;;;;;;5009560;28;20026;-72
2022/11/04 12:28:07;;;;;;;3.25;0.88;;;12.70;99.90;;;;;;4991594;28;20121;-73
2022/11/04 12:30:50;;;;;;;4.90;0.68;;;12.80;99.90;;;;;;4991738;28;20032;-73
2022/11/04 12:33:24;;;;;;;3.92;0.70;;;12.90;99.90;;;;;;4996858;28;20022;-73
2022/11/04 12:36:20;;;;;;;2.05;0.43;;;13.00;99.90;;;;;;4996491;28;20028;-74
2022/11/04 12:39:17;;;;;;;2.63;0.65;;;13.00;99.90;;;;;;4991924;28;20324;-73
2022/11/04 12:42:13;;;;;;;1.92;0.45;;;13.10;99.90;;;;;;4993470;28;20050;-74
2022/11/04 12:44:56;;;;;;;;;;;13.00;99.90;;;;;;4999627;28;20032;-74
2022/11/04 12:47:36;;;;;;;3.63;0.50;;;13.00;99.90;;;;;;4986135;28;19937;-73
2022/11/04 12:50:20;;;;;;;2.78;0.50;;;12.80;99.90;;;;;;4993813;28;20061;-73
2022/11/04 12:53:26;;;;;;;3.25;0.50;;;12.80;99.90;;;;;;4995477;28;20069;-73
2022/11/04 12:56:00;;;;;;;;;;;12.70;99.90;;;;;;4995284;28;20030;-73
2022/11/04 12:58:53;;;;;;;2.35;0.60;;;12.70;99.90;;;;;;4993203;28;19910;-74
2022/11/04 13:01:29;;;;;;;3.53;0.68;;;12.70;99.90;;;;;;4996730;28;20014;-73
2022/11/04 13:04:11;;;;;;;1.15;0.50;;;12.60;99.90;;;;;;4993977;28;20542;-74
2022/11/04 13:06:45;;;;;;;1.50;0.50;;;12.60;99.90;;;;;;4996311;28;20039;-74
2022/11/04 13:09:23;;;;;;;3.63;0.50;;;12.60;99.90;;;;;;4995455;28;20034;-73
2022/11/04 13:11:57;;;;;;;1.20;0.50;;;12.50;99.90;;;;;;4986250;28;20046;-73
2022/11/04 13:14:28;;;;;;;1.45;0.65;;;12.50;99.90;;;;;;4988419;28;20019;-71
2022/11/04 13:17:02;;;;;;;3.20;0.85;;;12.40;99.90;;;;;;4985147;28;20026;-72
2022/11/04 13:19:35;;;;;;;4.43;0.80;;;12.30;99.90;;;;;;4990139;28;20033;-72
2022/11/04 13:22:07;;;;;;;5.68;0.95;;;12.20;99.90;;;;;;4991987;28;20030;-71
2022/11/04 13:24:37;;;;;;;3.75;0.80;;;12.10;99.90;;;;;;4987218;28;20076;-71
2022/11/04 13:27:20;;;;;;;3.13;0.90;;;12.00;99.90;;;;;;4991140;28;20027;-72
2022/11/04 13:29:47;;;;;;;4.10;1.00;;;11.90;99.90;;;;;;4990639;28;20027;-71
2022/11/04 13:32:34;;;;;;;5.18;0.80;;;11.80;99.90;;;;;;4988130;28;20423;-72
2022/11/04 13:35:40;;;;;;;4.70;0.80;;;11.80;99.90;;;;;;4990857;28;20038;-72
2022/11/04 13:38:17;;;;;;;2.63;0.70;;;11.70;99.90;;;;;;4966485;28;20552;-71